sensor_id;sensor_type;location;lat;lon;timestamp;P1;durP1;ratioP1;P2;durP2;ratioP2
67227;SDS011;54139;42.616;23.748;2023-03-01T00:02:01;1.92;;;1.83;;
67227;SDS011;54139;42.616;23.748;2023-03-01T00:04:26;1.40;;;1.30;;
67227;SDS011;54139;42.616;23.748;2023-03-01T00:06:52;1.95;;;1.80;;
67227;SDS011;54139;42.616;23.748;2023-03-01T00:09:18;2.03;;;1.85;;
67227;SDS011;54139;42.616;23.748;2023-03-01T00:11:44;3.50;;;1.60;;
67227;SDS011;54139;42.616;23.748;2023-03-01T00:14:10;1.42;;;1.33;;
67227;SDS011;54139;42.616;23.748;2023-03-01T00:16:37;1.77;;;1.67;;
67227;SDS011;54139;42.616;23.748;2023-03-01T00:19:04;1.85;;;1.75;;
67227;SDS011;54139;42.616;23.748;2023-03-01T00:21:31;2.03;;;1.92;;
67227;SDS011;54139;42.616;23.748;2023-03-01T00:23:58;2.17;;;2.05;;
67227;SDS011;54139;42.616;23.748;2023-03-01T00:26:24;1.83;;;1.73;;
67227;SDS011;54139;42.616;23.748;2023-03-01T00:28:51;2.03;;;1.90;;
67227;SDS011;54139;42.616;23.748;2023-03-01T00:31:20;1.98;;;1.88;;
67227;SDS011;54139;42.616;23.748;2023-03-01T00:33:48;2.40;;;1.75;;
67227;SDS011;54139;42.616;23.748;2023-03-01T00:36:16;1.60;;;1.50;;
67227;SDS011;54139;42.616;23.748;2023-03-01T00:38:42;1.88;;;1.77;;
67227;SDS011;54139;42.616;23.748;2023-03-01T00:41:10;1.70;;;1.60;;
67227;SDS011;54139;42.616;23.748;2023-03-01T00:43:38;2.30;;;2.10;;
67227;SDS011;54139;42.616;23.748;2023-03-01T00:46:04;1.88;;;1.77;;
67227;SDS011;54139;42.616;23.748;2023-03-01T00:48:31;3.85;;;3.25;;
67227;SDS011;54139;42.616;23.748;2023-03-01T00:50:57;6.70;;;4.07;;
67227;SDS011;54139;42.616;23.748;2023-03-01T00:53:28;4.32;;;3.58;;
67227;SDS011;54139;42.616;23.748;2023-03-01T00:55:56;2.90;;;2.70;;
67227;SDS011;54139;42.616;23.748;2023-03-01T00:58:22;2.60;;;2.40;;
67227;SDS011;54139;42.616;23.748;2023-03-01T01:00:48;2.42;;;2.22;;
67227;SDS011;54139;42.616;23.748;2023-03-01T01:03:14;1.85;;;1.75;;
67227;SDS011;54139;42.616;23.748;2023-03-01T01:05:39;1.80;;;1.70;;
67227;SDS011;54139;42.616;23.748;2023-03-01T01:08:05;1.80;;;1.70;;
67227;SDS011;54139;42.616;23.748;2023-03-01T01:10:30;1.60;;;1.50;;
67227;SDS011;54139;42.616;23.748;2023-03-01T01:12:59;1.42;;;1.33;;
67227;SDS011;54139;42.616;23.748;2023-03-01T01:15:24;1.45;;;1.35;;
67227;SDS011;54139;42.616;23.748;2023-03-01T01:17:50;1.30;;;1.20;;
67227;SDS011;54139;42.616;23.748;2023-03-01T01:20:17;1.13;;;1.02;;
67227;SDS011;54139;42.616;23.748;2023-03-01T01:22:42;0.85;;;0.85;;
67227;SDS011;54139;42.616;23.748;2023-03-01T01:25:08;1.10;;;1.10;;
67227;SDS011;54139;42.616;23.748;2023-03-01T01:27:33;0.90;;;0.90;;
67227;SDS011;54139;42.616;23.748;2023-03-01T01:29:59;0.88;;;0.88;;
67227;SDS011;54139;42.616;23.748;2023-03-01T01:32:24;0.85;;;0.85;;
67227;SDS011;54139;42.616;23.748;2023-03-01T01:34:50;1.30;;;1.20;;
67227;SDS011;54139;42.616;23.748;2023-03-01T01:37:15;2.35;;;2.25;;
67227;SDS011;54139;42.616;23.748;2023-03-01T01:39:41;2.03;;;1.92;;
67227;SDS011;54139;42.616;23.748;2023-03-01T01:42:09;3.42;;;3.13;;
67227;SDS011;54139;42.616;23.748;2023-03-01T01:44:42;3.17;;;2.97;;
67227;SDS011;54139;42.616;23.748;2023-03-01T01:47:12;3.28;;;3.00;;
67227;SDS011;54139;42.616;23.748;2023-03-01T01:49:52;2.90;;;2.70;;
67227;SDS011;54139;42.616;23.748;2023-03-01T01:52:24;2.65;;;2.45;;
67227;SDS011;54139;42.616;23.748;2023-03-01T01:57:23;2.70;;;2.50;;
67227;SDS011;54139;42.616;23.748;2023-03-01T01:59:59;2.28;;;2.03;;
67227;SDS011;54139;42.616;23.748;2023-03-01T02:02:25;2.55;;;2.35;;
67227;SDS011;54139;42.616;23.748;2023-03-01T02:04:52;1.55;;;1.45;;
67227;SDS011;54139;42.616;23.748;2023-03-01T02:07:23;1.98;;;1.88;;
67227;SDS011;54139;42.616;23.748;2023-03-01T02:09:50;1.80;;;1.70;;
67227;SDS011;54139;42.616;23.748;2023-03-01T02:12:18;1.80;;;1.70;;
67227;SDS011;54139;42.616;23.748;2023-03-01T02:14:44;1.58;;;1.05;;
67227;SDS011;54139;42.616;23.748;2023-03-01T02:17:10;1.15;;;1.02;;
67227;SDS011;54139;42.616;23.748;2023-03-01T02:22:04;1.55;;;1.20;;
67227;SDS011;54139;42.616;23.748;2023-03-01T02:24:43;0.82;;;0.82;;
67227;SDS011;54139;42.616;23.748;2023-03-01T02:27:33;1.48;;;1.27;;
67227;SDS011;54139;42.616;23.748;2023-03-01T02:30:04;1.20;;;1.10;;
67227;SDS011;54139;42.616;23.748;2023-03-01T02:32:30;2.42;;;0.90;;
67227;SDS011;54139;42.616;23.748;2023-03-01T02:34:56;1.10;;;1.05;;
67227;SDS011;54139;42.616;23.748;2023-03-01T02:37:21;2.15;;;1.40;;
67227;SDS011;54139;42.616;23.748;2023-03-01T02:39:50;1.52;;;1.42;;
67227;SDS011;54139;42.616;23.748;2023-03-01T02:42:24;1.65;;;1.55;;
67227;SDS011;54139;42.616;23.748;2023-03-01T02:44:53;1.60;;;1.50;;
67227;SDS011;54139;42.616;23.748;2023-03-01T02:47:18;1.60;;;1.50;;
67227;SDS011;54139;42.616;23.748;2023-03-01T02:49:44;1.60;;;1.50;;
67227;SDS011;54139;42.616;23.748;2023-03-01T02:57:33;3.40;;;3.10;;
67227;SDS011;54139;42.616;23.748;2023-03-01T03:00:01;3.25;;;2.92;;
67227;SDS011;54139;42.616;23.748;2023-03-01T03:02:32;4.88;;;4.47;;
67227;SDS011;54139;42.616;23.748;2023-03-01T03:05:11;3.63;;;2.97;;
67227;SDS011;54139;42.616;23.748;2023-03-01T03:07:42;2.47;;;2.28;;
67227;SDS011;54139;42.616;23.748;2023-03-01T03:10:09;3.08;;;2.78;;
67227;SDS011;54139;42.616;23.748;2023-03-01T03:12:50;2.75;;;2.55;;
67227;SDS011;54139;42.616;23.748;2023-03-01T03:15:16;3.38;;;3.08;;
67227;SDS011;54139;42.616;23.748;2023-03-01T03:17:42;4.75;;;3.10;;
67227;SDS011;54139;42.616;23.748;2023-03-01T03:20:09;4.32;;;3.83;;
67227;SDS011;54139;42.616;23.748;2023-03-01T03:22:40;4.82;;;3.40;;
67227;SDS011;54139;42.616;23.748;2023-03-01T03:25:06;3.72;;;3.45;;
67227;SDS011;54139;42.616;23.748;2023-03-01T03:27:36;6.25;;;4.18;;
67227;SDS011;54139;42.616;23.748;2023-03-01T03:30:03;3.53;;;3.22;;
67227;SDS011;54139;42.616;23.748;2023-03-01T03:32:33;3.75;;;3.45;;
67227;SDS011;54139;42.616;23.748;2023-03-01T03:35:00;4.00;;;3.33;;
67227;SDS011;54139;42.616;23.748;2023-03-01T03:37:25;3.67;;;3.15;;
67227;SDS011;54139;42.616;23.748;2023-03-01T03:40:09;4.55;;;3.58;;
67227;SDS011;54139;42.616;23.748;2023-03-01T03:42:40;3.65;;;3.35;;
67227;SDS011;54139;42.616;23.748;2023-03-01T03:45:06;4.28;;;3.55;;
67227;SDS011;54139;42.616;23.748;2023-03-01T03:47:32;3.65;;;3.35;;
67227;SDS011;54139;42.616;23.748;2023-03-01T03:50:16;3.67;;;3.17;;
67227;SDS011;54139;42.616;23.748;2023-03-01T03:52:43;2.95;;;2.75;;
67227;SDS011;54139;42.616;23.748;2023-03-01T03:55:09;2.65;;;2.40;;
67227;SDS011;54139;42.616;23.748;2023-03-01T03:57:39;2.78;;;2.58;;
67227;SDS011;54139;42.616;23.748;2023-03-01T04:00:24;2.85;;;2.65;;
67227;SDS011;54139;42.616;23.748;2023-03-01T04:02:49;3.00;;;2.67;;
67227;SDS011;54139;42.616;23.748;2023-03-01T04:05:16;2.58;;;2.38;;
67227;SDS011;54139;42.616;23.748;2023-03-01T04:07:43;4.25;;;3.83;;
67227;SDS011;54139;42.616;23.748;2023-03-01T04:10:10;3.45;;;3.13;;
67227;SDS011;54139;42.616;23.748;2023-03-01T04:12:37;2.88;;;2.65;;
67227;SDS011;54139;42.616;23.748;2023-03-01T04:15:03;2.90;;;2.70;;
67227;SDS011;54139;42.616;23.748;2023-03-01T04:17:41;3.22;;;2.92;;
67227;SDS011;54139;42.616;23.748;2023-03-01T04:20:11;3.35;;;3.05;;
67227;SDS011;54139;42.616;23.748;2023-03-01T04:22:49;3.70;;;3.22;;
67227;SDS011;54139;42.616;23.748;2023-03-01T04:25:39;3.03;;;2.83;;
67227;SDS011;54139;42.616;23.748;2023-03-01T04:28:05;3.60;;;3.30;;
67227;SDS011;54139;42.616;23.748;2023-03-01T04:30:31;4.88;;;3.28;;
67227;SDS011;54139;42.616;23.748;2023-03-01T04:33:01;3.15;;;2.85;;
67227;SDS011;54139;42.616;23.748;2023-03-01T04:35:28;2.22;;;1.83;;
67227;SDS011;54139;42.616;23.748;2023-03-01T04:37:54;2.63;;;2.03;;
67227;SDS011;54139;42.616;23.748;2023-03-01T04:40:20;3.58;;;2.42;;
67227;SDS011;54139;42.616;23.748;2023-03-01T04:42:46;2.28;;;2.08;;
67227;SDS011;54139;42.616;23.748;2023-03-01T04:45:12;2.33;;;2.22;;
67227;SDS011;54139;42.616;23.748;2023-03-01T04:47:38;2.90;;;2.55;;
67227;SDS011;54139;42.616;23.748;2023-03-01T04:50:05;2.10;;;1.90;;
67227;SDS011;54139;42.616;23.748;2023-03-01T04:52:31;2.63;;;2.22;;
67227;SDS011;54139;42.616;23.748;2023-03-01T04:54:56;2.25;;;1.80;;
67227;SDS011;54139;42.616;23.748;2023-03-01T04:57:22;2.58;;;1.98;;
67227;SDS011;54139;42.616;23.748;2023-03-01T04:59:47;2.13;;;1.40;;
67227;SDS011;54139;42.616;23.748;2023-03-01T05:02:13;1.30;;;1.20;;
67227;SDS011;54139;42.616;23.748;2023-03-01T05:04:38;1.50;;;1.40;;
67227;SDS011;54139;42.616;23.748;2023-03-01T05:07:03;2.05;;;1.52;;
67227;SDS011;54139;42.616;23.748;2023-03-01T05:09:29;1.85;;;1.40;;
67227;SDS011;54139;42.616;23.748;2023-03-01T05:11:54;1.20;;;1.10;;
67227;SDS011;54139;42.616;23.748;2023-03-01T05:14:20;1.50;;;1.40;;
67227;SDS011;54139;42.616;23.748;2023-03-01T05:16:45;2.05;;;1.40;;
67227;SDS011;54139;42.616;23.748;2023-03-01T05:19:11;1.20;;;1.10;;
67227;SDS011;54139;42.616;23.748;2023-03-01T05:21:40;1.42;;;1.20;;
67227;SDS011;54139;42.616;23.748;2023-03-01T05:24:26;2.17;;;1.55;;
67227;SDS011;54139;42.616;23.748;2023-03-01T05:26:51;1.42;;;1.30;;
67227;SDS011;54139;42.616;23.748;2023-03-01T05:29:18;1.48;;;1.20;;
67227;SDS011;54139;42.616;23.748;2023-03-01T05:31:50;1.23;;;1.00;;
67227;SDS011;54139;42.616;23.748;2023-03-01T05:34:17;1.10;;;1.00;;
67227;SDS011;54139;42.616;23.748;2023-03-01T05:36:42;0.80;;;0.80;;
67227;SDS011;54139;42.616;23.748;2023-03-01T05:39:07;2.20;;;1.13;;
67227;SDS011;54139;42.616;23.748;2023-03-01T05:41:33;1.17;;;1.10;;
67227;SDS011;54139;42.616;23.748;2023-03-01T05:43:58;0.80;;;0.80;;
67227;SDS011;54139;42.616;23.748;2023-03-01T05:46:24;0.82;;;0.80;;
67227;SDS011;54139;42.616;23.748;2023-03-01T05:48:49;0.65;;;0.65;;
67227;SDS011;54139;42.616;23.748;2023-03-01T05:51:15;1.30;;;1.02;;
67227;SDS011;54139;42.616;23.748;2023-03-01T05:53:40;1.02;;;0.73;;
67227;SDS011;54139;42.616;23.748;2023-03-01T05:56:05;1.05;;;0.70;;
67227;SDS011;54139;42.616;23.748;2023-03-01T05:58:31;1.50;;;0.98;;
67227;SDS011;54139;42.616;23.748;2023-03-01T06:00:57;1.25;;;1.08;;
67227;SDS011;54139;42.616;23.748;2023-03-01T06:03:23;2.55;;;1.30;;
67227;SDS011;54139;42.616;23.748;2023-03-01T06:05:49;1.88;;;1.38;;
67227;SDS011;54139;42.616;23.748;2023-03-01T06:08:14;1.35;;;1.25;;
67227;SDS011;54139;42.616;23.748;2023-03-01T06:10:40;1.65;;;1.50;;
67227;SDS011;54139;42.616;23.748;2023-03-01T06:13:06;1.60;;;1.20;;
67227;SDS011;54139;42.616;23.748;2023-03-01T06:15:31;1.70;;;1.60;;
67227;SDS011;54139;42.616;23.748;2023-03-01T06:17:57;1.42;;;1.30;;
67227;SDS011;54139;42.616;23.748;2023-03-01T06:20:24;3.75;;;1.20;;
67227;SDS011;54139;42.616;23.748;2023-03-01T06:22:50;2.05;;;1.15;;
67227;SDS011;54139;42.616;23.748;2023-03-01T06:25:17;1.92;;;1.48;;
67227;SDS011;54139;42.616;23.748;2023-03-01T06:27:45;1.92;;;1.45;;
67227;SDS011;54139;42.616;23.748;2023-03-01T06:30:12;2.60;;;1.08;;
67227;SDS011;54139;42.616;23.748;2023-03-01T06:32:39;1.30;;;1.10;;
67227;SDS011;54139;42.616;23.748;2023-03-01T06:35:07;1.10;;;1.00;;
67227;SDS011;54139;42.616;23.748;2023-03-01T06:37:33;1.55;;;1.15;;
67227;SDS011;54139;42.616;23.748;2023-03-01T06:40:00;1.67;;;1.20;;
67227;SDS011;54139;42.616;23.748;2023-03-01T06:42:29;1.30;;;1.20;;
67227;SDS011;54139;42.616;23.748;2023-03-01T06:44:55;1.20;;;1.02;;
67227;SDS011;54139;42.616;23.748;2023-03-01T06:47:20;1.60;;;1.25;;
67227;SDS011;54139;42.616;23.748;2023-03-01T06:49:46;0.80;;;0.80;;
67227;SDS011;54139;42.616;23.748;2023-03-01T06:52:12;0.63;;;0.63;;
67227;SDS011;54139;42.616;23.748;2023-03-01T06:54:37;0.68;;;0.68;;
67227;SDS011;54139;42.616;23.748;2023-03-01T06:57:03;0.93;;;0.70;;
67227;SDS011;54139;42.616;23.748;2023-03-01T06:59:29;1.10;;;1.00;;
67227;SDS011;54139;42.616;23.748;2023-03-01T07:01:54;0.70;;;0.50;;
67227;SDS011;54139;42.616;23.748;2023-03-01T07:04:20;0.68;;;0.65;;
67227;SDS011;54139;42.616;23.748;2023-03-01T07:06:46;0.90;;;0.50;;
67227;SDS011;54139;42.616;23.748;2023-03-01T07:09:19;0.70;;;0.70;;
67227;SDS011;54139;42.616;23.748;2023-03-01T07:11:46;0.40;;;0.40;;
67227;SDS011;54139;42.616;23.748;2023-03-01T07:14:12;0.70;;;0.70;;
67227;SDS011;54139;42.616;23.748;2023-03-01T07:16:37;0.75;;;0.75;;
67227;SDS011;54139;42.616;23.748;2023-03-01T07:19:03;0.80;;;0.52;;
67227;SDS011;54139;42.616;23.748;2023-03-01T07:21:30;0.60;;;0.60;;
67227;SDS011;54139;42.616;23.748;2023-03-01T07:23:56;2.88;;;0.90;;
67227;SDS011;54139;42.616;23.748;2023-03-01T07:26:22;0.65;;;0.60;;
67227;SDS011;54139;42.616;23.748;2023-03-01T07:28:47;1.70;;;0.60;;
67227;SDS011;54139;42.616;23.748;2023-03-01T07:31:13;2.67;;;0.93;;
67227;SDS011;54139;42.616;23.748;2023-03-01T07:33:39;1.75;;;0.80;;
67227;SDS011;54139;42.616;23.748;2023-03-01T07:36:05;0.52;;;0.50;;
67227;SDS011;54139;42.616;23.748;2023-03-01T07:38:31;0.82;;;0.60;;
67227;SDS011;54139;42.616;23.748;2023-03-01T07:40:58;4.10;;;0.68;;
67227;SDS011;54139;42.616;23.748;2023-03-01T07:43:27;1.05;;;0.50;;
67227;SDS011;54139;42.616;23.748;2023-03-01T07:46:00;0.55;;;0.50;;
67227;SDS011;54139;42.616;23.748;2023-03-01T07:50:51;0.80;;;0.40;;
67227;SDS011;54139;42.616;23.748;2023-03-01T07:53:17;0.47;;;0.47;;
67227;SDS011;54139;42.616;23.748;2023-03-01T07:55:42;0.63;;;0.50;;
67227;SDS011;54139;42.616;23.748;2023-03-01T07:58:08;0.50;;;0.35;;
67227;SDS011;54139;42.616;23.748;2023-03-01T08:00:34;1.40;;;0.73;;
67227;SDS011;54139;42.616;23.748;2023-03-01T08:03:00;1.52;;;0.75;;
67227;SDS011;54139;42.616;23.748;2023-03-01T08:05:26;0.77;;;0.52;;
67227;SDS011;54139;42.616;23.748;2023-03-01T08:10:28;1.05;;;0.95;;
67227;SDS011;54139;42.616;23.748;2023-03-01T08:12:54;1.13;;;1.02;;
67227;SDS011;54139;42.616;23.748;2023-03-01T08:17:54;1.25;;;1.08;;
67227;SDS011;54139;42.616;23.748;2023-03-01T08:25:24;1.40;;;1.00;;
67227;SDS011;54139;42.616;23.748;2023-03-01T08:27:50;3.70;;;1.25;;
67227;SDS011;54139;42.616;23.748;2023-03-01T08:30:18;1.05;;;0.70;;
67227;SDS011;54139;42.616;23.748;2023-03-01T08:32:45;0.90;;;0.90;;
67227;SDS011;54139;42.616;23.748;2023-03-01T08:35:10;0.63;;;0.63;;
67227;SDS011;54139;42.616;23.748;2023-03-01T08:37:39;1.02;;;0.77;;
67227;SDS011;54139;42.616;23.748;2023-03-01T08:40:08;0.40;;;0.30;;
67227;SDS011;54139;42.616;23.748;2023-03-01T08:42:35;0.52;;;0.28;;
67227;SDS011;54139;42.616;23.748;2023-03-01T08:45:01;0.30;;;0.20;;
67227;SDS011;54139;42.616;23.748;2023-03-01T08:47:27;0.30;;;0.20;;
67227;SDS011;54139;42.616;23.748;2023-03-01T08:49:53;0.50;;;0.20;;
67227;SDS011;54139;42.616;23.748;2023-03-01T08:52:19;0.10;;;0.10;;
67227;SDS011;54139;42.616;23.748;2023-03-01T08:54:47;0.80;;;0.70;;
67227;SDS011;54139;42.616;23.748;2023-03-01T08:57:12;0.30;;;0.30;;
67227;SDS011;54139;42.616;23.748;2023-03-01T08:59:38;1.10;;;0.75;;
67227;SDS011;54139;42.616;23.748;2023-03-01T09:02:04;0.10;;;0.10;;
67227;SDS011;54139;42.616;23.748;2023-03-01T09:04:33;0.10;;;0.10;;
67227;SDS011;54139;42.616;23.748;2023-03-01T09:06:59;0.75;;;0.25;;
67227;SDS011;54139;42.616;23.748;2023-03-01T09:09:24;0.32;;;0.30;;
67227;SDS011;54139;42.616;23.748;2023-03-01T09:11:50;0.38;;;0.20;;
67227;SDS011;54139;42.616;23.748;2023-03-01T09:14:16;0.13;;;0.13;;
67227;SDS011;54139;42.616;23.748;2023-03-01T09:16:41;2.63;;;0.32;;
67227;SDS011;54139;42.616;23.748;2023-03-01T09:19:07;1.27;;;1.10;;
67227;SDS011;54139;42.616;23.748;2023-03-01T09:21:33;1.23;;;1.13;;
67227;SDS011;54139;42.616;23.748;2023-03-01T09:23:59;0.47;;;0.38;;
67227;SDS011;54139;42.616;23.748;2023-03-01T09:26:24;0.55;;;0.30;;
67227;SDS011;54139;42.616;23.748;2023-03-01T09:28:51;0.98;;;0.90;;
67227;SDS011;54139;42.616;23.748;2023-03-01T09:31:18;0.70;;;0.70;;
67227;SDS011;54139;42.616;23.748;2023-03-01T09:33:46;1.55;;;0.98;;
67227;SDS011;54139;42.616;23.748;2023-03-01T09:36:14;1.50;;;1.40;;
67227;SDS011;54139;42.616;23.748;2023-03-01T09:38:41;0.65;;;0.65;;
67227;SDS011;54139;42.616;23.748;2023-03-01T09:41:17;1.00;;;0.30;;
67227;SDS011;54139;42.616;23.748;2023-03-01T09:43:55;0.10;;;0.10;;
67227;SDS011;54139;42.616;23.748;2023-03-01T09:46:23;0.10;;;0.10;;
67227;SDS011;54139;42.616;23.748;2023-03-01T09:51:30;0.00;;;0.00;;
67227;SDS011;54139;42.616;23.748;2023-03-01T09:54:03;0.20;;;0.10;;
67227;SDS011;54139;42.616;23.748;2023-03-01T09:56:34;0.17;;;0.17;;
67227;SDS011;54139;42.616;23.748;2023-03-01T10:01:44;0.10;;;0.10;;
67227;SDS011;54139;42.616;23.748;2023-03-01T10:09:39;0.30;;;0.10;;
67227;SDS011;54139;42.616;23.748;2023-03-01T10:12:16;0.10;;;0.10;;
67227;SDS011;54139;42.616;23.748;2023-03-01T10:14:48;1.23;;;0.10;;
67227;SDS011;54139;42.616;23.748;2023-03-01T10:17:43;0.15;;;0.15;;
67227;SDS011;54139;42.616;23.748;2023-03-01T10:22:42;0.10;;;0.05;;
67227;SDS011;54139;42.616;23.748;2023-03-01T10:25:12;0.10;;;0.10;;
67227;SDS011;54139;42.616;23.748;2023-03-01T10:27:56;0.10;;;0.10;;
67227;SDS011;54139;42.616;23.748;2023-03-01T10:30:37;0.10;;;0.10;;
67227;SDS011;54139;42.616;23.748;2023-03-01T10:33:15;0.20;;;0.20;;
67227;SDS011;54139;42.616;23.748;2023-03-01T10:35:43;0.10;;;0.10;;
67227;SDS011;54139;42.616;23.748;2023-03-01T10:38:10;0.35;;;0.30;;
67227;SDS011;54139;42.616;23.748;2023-03-01T10:40:49;0.50;;;0.20;;
67227;SDS011;54139;42.616;23.748;2023-03-01T10:43:32;0.40;;;0.20;;
67227;SDS011;54139;42.616;23.748;2023-03-01T10:46:21;0.47;;;0.30;;
67227;SDS011;54139;42.616;23.748;2023-03-01T10:51:42;0.45;;;0.40;;
67227;SDS011;54139;42.616;23.748;2023-03-01T10:56:50;0.80;;;0.52;;
67227;SDS011;54139;42.616;23.748;2023-03-01T10:59:35;0.65;;;0.30;;
67227;SDS011;54139;42.616;23.748;2023-03-01T11:02:16;2.95;;;0.35;;
67227;SDS011;54139;42.616;23.748;2023-03-01T11:05:17;1.45;;;0.20;;
67227;SDS011;54139;42.616;23.748;2023-03-01T11:07:56;0.75;;;0.22;;
67227;SDS011;54139;42.616;23.748;2023-03-01T11:10:25;0.30;;;0.30;;
67227;SDS011;54139;42.616;23.748;2023-03-01T11:12:52;0.45;;;0.30;;
67227;SDS011;54139;42.616;23.748;2023-03-01T11:15:20;0.35;;;0.35;;
67227;SDS011;54139;42.616;23.748;2023-03-01T11:17:48;0.20;;;0.20;;
67227;SDS011;54139;42.616;23.748;2023-03-01T11:20:20;0.35;;;0.30;;
67227;SDS011;54139;42.616;23.748;2023-03-01T11:22:52;0.50;;;0.38;;
67227;SDS011;54139;42.616;23.748;2023-03-01T11:25:20;0.25;;;0.20;;
67227;SDS011;54139;42.616;23.748;2023-03-01T11:27:50;0.98;;;0.50;;
67227;SDS011;54139;42.616;23.748;2023-03-01T11:30:37;0.60;;;0.38;;
67227;SDS011;54139;42.616;23.748;2023-03-01T11:35:45;1.55;;;0.70;;
67227;SDS011;54139;42.616;23.748;2023-03-01T11:38:26;1.02;;;0.50;;
67227;SDS011;54139;42.616;23.748;2023-03-01T11:43:23;0.57;;;0.35;;
67227;SDS011;54139;42.616;23.748;2023-03-01T12:11:45;0.57;;;0.57;;
67227;SDS011;54139;42.616;23.748;2023-03-01T12:14:19;2.38;;;0.80;;
67227;SDS011;54139;42.616;23.748;2023-03-01T12:19:38;1.95;;;1.42;;
67227;SDS011;54139;42.616;23.748;2023-03-01T12:22:10;4.60;;;1.13;;
67227;SDS011;54139;42.616;23.748;2023-03-01T12:38:22;1.45;;;1.35;;
67227;SDS011;54139;42.616;23.748;2023-03-01T12:44:01;2.15;;;1.38;;
67227;SDS011;54139;42.616;23.748;2023-03-01T12:46:39;1.80;;;1.40;;
67227;SDS011;54139;42.616;23.748;2023-03-01T12:49:28;2.22;;;1.48;;
67227;SDS011;54139;42.616;23.748;2023-03-01T12:52:10;2.08;;;1.48;;
67227;SDS011;54139;42.616;23.748;2023-03-01T12:54:42;2.47;;;1.60;;
67227;SDS011;54139;42.616;23.748;2023-03-01T12:57:11;1.92;;;1.70;;
67227;SDS011;54139;42.616;23.748;2023-03-01T13:02:47;1.67;;;1.52;;
67227;SDS011;54139;42.616;23.748;2023-03-01T13:08:14;1.98;;;1.70;;
67227;SDS011;54139;42.616;23.748;2023-03-01T13:13:18;2.97;;;1.52;;
67227;SDS011;54139;42.616;23.748;2023-03-01T13:15:49;2.10;;;1.67;;
67227;SDS011;54139;42.616;23.748;2023-03-01T13:25:35;2.10;;;1.85;;
67227;SDS011;54139;42.616;23.748;2023-03-01T13:31:00;2.90;;;1.63;;
67227;SDS011;54139;42.616;23.748;2023-03-01T13:35:56;2.15;;;1.50;;
67227;SDS011;54139;42.616;23.748;2023-03-01T13:41:11;2.03;;;1.50;;
67227;SDS011;54139;42.616;23.748;2023-03-01T13:43:38;2.83;;;1.52;;
67227;SDS011;54139;42.616;23.748;2023-03-01T13:46:08;1.80;;;1.60;;
67227;SDS011;54139;42.616;23.748;2023-03-01T13:48:36;2.42;;;1.73;;
67227;SDS011;54139;42.616;23.748;2023-03-01T13:51:03;1.70;;;1.35;;
67227;SDS011;54139;42.616;23.748;2023-03-01T13:53:33;1.77;;;1.58;;
67227;SDS011;54139;42.616;23.748;2023-03-01T13:56:02;1.65;;;1.52;;
67227;SDS011;54139;42.616;23.748;2023-03-01T13:58:33;4.07;;;1.50;;
67227;SDS011;54139;42.616;23.748;2023-03-01T14:01:02;1.50;;;1.40;;
67227;SDS011;54139;42.616;23.748;2023-03-01T14:03:32;2.08;;;1.90;;
67227;SDS011;54139;42.616;23.748;2023-03-01T14:06:06;3.35;;;2.63;;
67227;SDS011;54139;42.616;23.748;2023-03-01T14:08:44;3.60;;;2.38;;
67227;SDS011;54139;42.616;23.748;2023-03-01T14:19:29;2.05;;;1.25;;
67227;SDS011;54139;42.616;23.748;2023-03-01T14:24:51;1.88;;;1.65;;
67227;SDS011;54139;42.616;23.748;2023-03-01T14:27:20;2.38;;;1.50;;
67227;SDS011;54139;42.616;23.748;2023-03-01T14:29:56;3.42;;;1.65;;
67227;SDS011;54139;42.616;23.748;2023-03-01T14:34:52;2.50;;;1.80;;
67227;SDS011;54139;42.616;23.748;2023-03-01T14:39:48;1.70;;;1.60;;
67227;SDS011;54139;42.616;23.748;2023-03-01T14:42:14;2.63;;;1.80;;
67227;SDS011;54139;42.616;23.748;2023-03-01T14:44:43;1.60;;;1.10;;
67227;SDS011;54139;42.616;23.748;2023-03-01T14:47:12;3.05;;;1.40;;
67227;SDS011;54139;42.616;23.748;2023-03-01T14:49:40;2.45;;;1.52;;
67227;SDS011;54139;42.616;23.748;2023-03-01T14:52:07;1.73;;;0.95;;
67227;SDS011;54139;42.616;23.748;2023-03-01T14:54:48;1.42;;;0.75;;
67227;SDS011;54139;42.616;23.748;2023-03-01T14:57:16;4.90;;;1.00;;
67227;SDS011;54139;42.616;23.748;2023-03-01T14:59:42;1.58;;;0.85;;
67227;SDS011;54139;42.616;23.748;2023-03-01T15:02:11;1.55;;;0.82;;
67227;SDS011;54139;42.616;23.748;2023-03-01T15:04:41;1.10;;;0.60;;
67227;SDS011;54139;42.616;23.748;2023-03-01T15:07:09;1.45;;;1.02;;
67227;SDS011;54139;42.616;23.748;2023-03-01T15:09:37;1.83;;;1.08;;
67227;SDS011;54139;42.616;23.748;2023-03-01T15:12:23;1.88;;;1.23;;
67227;SDS011;54139;42.616;23.748;2023-03-01T15:14:54;1.15;;;0.82;;
67227;SDS011;54139;42.616;23.748;2023-03-01T15:19:59;2.78;;;0.80;;
67227;SDS011;54139;42.616;23.748;2023-03-01T15:22:26;1.67;;;0.80;;
67227;SDS011;54139;42.616;23.748;2023-03-01T15:24:52;1.58;;;0.80;;
67227;SDS011;54139;42.616;23.748;2023-03-01T15:27:19;3.25;;;0.93;;
67227;SDS011;54139;42.616;23.748;2023-03-01T15:29:48;1.50;;;1.10;;
67227;SDS011;54139;42.616;23.748;2023-03-01T15:35:00;1.33;;;0.90;;
67227;SDS011;54139;42.616;23.748;2023-03-01T15:37:40;2.35;;;1.10;;
67227;SDS011;54139;42.616;23.748;2023-03-01T15:40:25;3.35;;;1.17;;
67227;SDS011;54139;42.616;23.748;2023-03-01T15:43:03;1.67;;;1.58;;
67227;SDS011;54139;42.616;23.748;2023-03-01T15:45:30;3.17;;;1.77;;
67227;SDS011;54139;42.616;23.748;2023-03-01T15:48:02;3.45;;;1.10;;
67227;SDS011;54139;42.616;23.748;2023-03-01T15:50:30;2.50;;;1.33;;
67227;SDS011;54139;42.616;23.748;2023-03-01T15:52:58;1.67;;;1.33;;
67227;SDS011;54139;42.616;23.748;2023-03-01T15:55:25;1.25;;;1.10;;
67227;SDS011;54139;42.616;23.748;2023-03-01T15:58:04;1.20;;;1.10;;
67227;SDS011;54139;42.616;23.748;2023-03-01T16:00:32;3.05;;;1.20;;
67227;SDS011;54139;42.616;23.748;2023-03-01T16:02:59;1.88;;;1.17;;
67227;SDS011;54139;42.616;23.748;2023-03-01T16:05:26;2.38;;;1.23;;
67227;SDS011;54139;42.616;23.748;2023-03-01T16:07:56;4.15;;;1.05;;
67227;SDS011;54139;42.616;23.748;2023-03-01T16:10:23;5.20;;;0.98;;
67227;SDS011;54139;42.616;23.748;2023-03-01T16:12:52;1.40;;;1.30;;
67227;SDS011;54139;42.616;23.748;2023-03-01T16:15:19;1.50;;;0.90;;
67227;SDS011;54139;42.616;23.748;2023-03-01T16:17:49;1.45;;;1.35;;
67227;SDS011;54139;42.616;23.748;2023-03-01T16:20:15;1.45;;;1.30;;
67227;SDS011;54139;42.616;23.748;2023-03-01T16:22:44;3.97;;;1.20;;
67227;SDS011;54139;42.616;23.748;2023-03-01T16:25:11;1.15;;;1.05;;
67227;SDS011;54139;42.616;23.748;2023-03-01T16:27:37;2.38;;;1.70;;
67227;SDS011;54139;42.616;23.748;2023-03-01T16:30:04;1.67;;;1.40;;
67227;SDS011;54139;42.616;23.748;2023-03-01T16:32:30;1.52;;;1.20;;
67227;SDS011;54139;42.616;23.748;2023-03-01T16:34:56;1.70;;;1.40;;
67227;SDS011;54139;42.616;23.748;2023-03-01T16:37:21;2.22;;;2.03;;
67227;SDS011;54139;42.616;23.748;2023-03-01T16:39:47;5.88;;;2.83;;
67227;SDS011;54139;42.616;23.748;2023-03-01T16:42:14;2.63;;;2.42;;
67227;SDS011;54139;42.616;23.748;2023-03-01T16:44:41;4.20;;;2.80;;
67227;SDS011;54139;42.616;23.748;2023-03-01T16:47:06;3.53;;;3.22;;
67227;SDS011;54139;42.616;23.748;2023-03-01T16:49:32;3.17;;;2.88;;
67227;SDS011;54139;42.616;23.748;2023-03-01T16:51:58;3.55;;;3.05;;
67227;SDS011;54139;42.616;23.748;2023-03-01T16:54:24;4.43;;;4.03;;
67227;SDS011;54139;42.616;23.748;2023-03-01T16:56:49;5.05;;;4.55;;
67227;SDS011;54139;42.616;23.748;2023-03-01T16:59:15;4.97;;;4.57;;
67227;SDS011;54139;42.616;23.748;2023-03-01T17:01:40;6.18;;;4.70;;